createdAt,value
2023-04-23T00:00:17.069Z,38.40
2023-04-23T00:02:47.164Z,40.77
2023-04-23T00:05:16.931Z,36.57
2023-04-23T00:07:46.150Z,39.57
2023-04-23T00:10:15.282Z,43.00
2023-04-23T00:12:44.573Z,40.03
2023-04-23T00:15:16.790Z,41.07
2023-04-23T00:17:45.460Z,41.80
2023-04-23T00:20:14.113Z,40.70
2023-04-23T00:22:42.879Z,40.60
2023-04-23T00:25:11.879Z,41.23
2023-04-23T00:27:40.890Z,38.87
2023-04-23T00:30:10.717Z,43.60
2023-04-23T00:32:41.199Z,40.80
2023-04-23T00:35:10.335Z,38.80
2023-04-23T00:37:39.006Z,39.73
2023-04-23T00:40:09.372Z,38.27
2023-04-23T00:42:40.298Z,40.97
2023-04-23T00:45:10.031Z,40.30
2023-04-23T00:47:38.694Z,40.03
2023-04-23T00:50:10.216Z,40.53
2023-04-23T00:52:40.880Z,40.17
2023-04-23T00:55:10.533Z,37.63
2023-04-23T00:57:40.219Z,42.87
2023-04-23T01:00:10.117Z,42.10
2023-04-23T01:02:39.601Z,40.97
2023-04-23T01:05:12.197Z,44.73
2023-04-23T01:07:41.043Z,43.37
2023-04-23T01:10:11.168Z,43.83
2023-04-23T01:12:40.179Z,44.30
2023-04-23T01:15:10.263Z,44.90
2023-04-23T01:17:39.028Z,45.60
2023-04-23T01:20:10.801Z,45.20
2023-04-23T01:22:41.116Z,47.00
2023-04-23T01:25:10.823Z,45.57
2023-04-23T01:27:40.538Z,48.63
2023-04-23T01:30:11.153Z,48.37
2023-04-23T01:32:41.718Z,49.27
2023-04-23T01:35:13.312Z,49.33
2023-04-23T01:37:44.957Z,49.10
2023-04-23T01:40:14.126Z,48.57
2023-04-23T01:42:43.336Z,45.97
2023-04-23T01:45:12.619Z,46.53
2023-04-23T01:47:42.177Z,45.27
2023-04-23T01:50:11.245Z,45.43
2023-04-23T01:52:40.512Z,46.00
2023-04-23T01:55:11.252Z,46.10
2023-04-23T01:57:40.100Z,46.03
2023-04-23T02:00:11.556Z,45.10
2023-04-23T02:02:42.194Z,47.07
2023-04-23T02:05:13.763Z,44.20
2023-04-23T02:07:42.780Z,42.57
2023-04-23T02:10:13.998Z,45.10
2023-04-23T02:12:42.647Z,46.80
2023-04-23T02:15:12.875Z,44.97
2023-04-23T02:17:41.896Z,46.47
2023-04-23T02:20:11.260Z,46.83
2023-04-23T02:22:41.467Z,47.23
2023-04-23T02:25:10.871Z,46.03
2023-04-23T02:27:40.849Z,47.27
2023-04-23T02:30:11.776Z,43.90
2023-04-23T02:32:41.905Z,43.30
2023-04-23T02:35:11.258Z,43.43
2023-04-23T02:37:39.835Z,43.07
2023-04-23T02:40:09.717Z,46.93
2023-04-23T02:42:38.397Z,51.27
2023-04-23T02:45:10.164Z,49.23
2023-04-23T02:47:39.599Z,48.70
2023-04-23T02:50:09.164Z,48.80
2023-04-23T02:52:37.773Z,47.97
2023-04-23T02:55:07.319Z,48.40
2023-04-23T02:57:35.974Z,49.67
2023-04-23T03:00:06.549Z,48.77
2023-04-23T03:02:37.084Z,48.53
2023-04-23T03:05:07.434Z,49.37
2023-04-23T03:07:35.931Z,49.93
2023-04-23T03:10:04.655Z,48.30
2023-04-23T03:12:33.195Z,48.00
2023-04-23T03:15:01.671Z,47.97
2023-04-23T03:17:30.619Z,46.87
2023-04-23T03:20:01.001Z,49.97
2023-04-23T03:22:29.620Z,50.83
2023-04-23T03:24:58.284Z,50.33
2023-04-23T03:27:27.171Z,51.27
2023-04-23T03:29:55.741Z,52.73
2023-04-23T03:32:24.333Z,55.33
2023-04-23T03:34:52.857Z,55.63
2023-04-23T03:37:23.117Z,52.90
2023-04-23T03:39:51.676Z,55.67
2023-04-23T03:42:20.256Z,54.40
2023-04-23T03:44:48.774Z,55.03
2023-04-23T03:47:17.652Z,56.50
2023-04-23T03:49:46.385Z,56.93
2023-04-23T03:52:15.036Z,53.67
2023-04-23T03:54:45.083Z,49.63
2023-04-23T03:57:13.747Z,49.80
2023-04-23T03:59:42.285Z,46.80
2023-04-23T04:02:11.704Z,47.10
2023-04-23T04:04:40.672Z,47.40
2023-04-23T04:07:12.219Z,46.07
2023-04-23T04:09:40.940Z,43.17
2023-04-23T04:12:12.400Z,42.07
2023-04-23T04:14:41.231Z,44.07
2023-04-23T04:17:09.937Z,48.27
2023-04-23T04:19:38.824Z,48.60
2023-04-23T04:22:07.399Z,46.50
2023-04-23T04:24:35.935Z,50.63
2023-04-23T04:27:04.907Z,48.67
2023-04-23T04:29:35.410Z,48.10
2023-04-23T04:32:05.420Z,46.90
2023-04-23T04:34:34.282Z,47.53
2023-04-23T04:37:02.918Z,46.47
2023-04-23T04:39:31.433Z,44.47
2023-04-23T04:42:00.086Z,43.87
2023-04-23T04:44:28.968Z,41.37
2023-04-23T04:46:59.149Z,39.03
2023-04-23T04:49:27.804Z,42.73
2023-04-23T04:51:56.360Z,41.07
2023-04-23T04:54:24.920Z,39.77
2023-04-23T04:56:53.504Z,38.43
2023-04-23T04:59:22.406Z,42.43
2023-04-23T05:01:51.032Z,39.93
2023-04-23T05:04:21.167Z,40.37
2023-04-23T05:06:49.776Z,40.53
2023-04-23T05:09:18.850Z,39.70
2023-04-23T05:11:47.454Z,42.93
2023-04-23T05:14:16.120Z,40.33
2023-04-23T05:16:44.930Z,40.90
2023-04-23T05:19:13.811Z,41.13
2023-04-23T05:21:43.850Z,40.90
2023-04-23T05:24:12.436Z,39.43
2023-04-23T05:26:41.305Z,40.57
2023-04-23T05:29:10.103Z,41.97
2023-04-23T05:31:38.949Z,41.37
2023-04-23T05:34:07.546Z,42.07
2023-04-23T05:36:36.642Z,43.10
2023-04-23T05:39:06.956Z,40.70
2023-04-23T05:41:35.967Z,39.00
2023-04-23T05:44:04.541Z,37.53
2023-04-23T05:46:33.174Z,36.63
2023-04-23T05:49:01.696Z,32.67
2023-04-23T05:51:30.266Z,31.40
2023-04-23T05:53:59.215Z,30.23
2023-04-23T05:56:29.167Z,26.87
2023-04-23T05:58:58.144Z,25.10
2023-04-23T06:01:26.965Z,24.07
2023-04-23T06:03:55.778Z,23.30
2023-04-23T06:06:24.651Z,21.47
2023-04-23T06:08:53.242Z,20.70
2023-04-23T06:11:22.694Z,18.93
2023-04-23T06:13:52.614Z,19.37
2023-04-23T06:16:21.221Z,18.07
2023-04-23T06:18:49.816Z,18.43
2023-04-23T06:21:19.777Z,17.67
2023-04-23T06:23:48.461Z,17.10
2023-04-23T06:26:17.175Z,17.40
2023-04-23T06:28:47.035Z,16.17
2023-04-23T06:31:17.488Z,16.73
2023-04-23T06:33:46.175Z,17.30
2023-04-23T06:36:14.965Z,15.60
2023-04-23T06:38:44.812Z,16.07
2023-04-23T06:41:14.090Z,15.93
2023-04-23T06:43:43.256Z,16.10
2023-04-23T06:46:11.745Z,15.93
2023-04-23T06:48:42.081Z,15.93
2023-04-23T06:51:10.973Z,16.60
2023-04-23T06:53:40.194Z,14.47
2023-04-23T06:56:09.089Z,16.00
2023-04-23T06:58:37.777Z,16.10
2023-04-23T07:01:07.761Z,14.80
2023-04-23T07:03:37.186Z,14.17
2023-04-23T07:06:07.716Z,13.77
2023-04-23T07:08:36.376Z,13.80
2023-04-23T07:11:05.434Z,13.90
2023-04-23T07:13:34.508Z,13.90
2023-04-23T07:16:03.088Z,13.03
2023-04-23T07:18:31.665Z,12.87
2023-04-23T07:21:00.423Z,12.00
2023-04-23T07:23:30.775Z,12.17
2023-04-23T07:25:59.558Z,11.70
2023-04-23T07:28:28.685Z,10.70
2023-04-23T07:30:57.872Z,11.23
2023-04-23T07:33:27.074Z,10.30
2023-04-23T07:35:55.856Z,10.33
2023-04-23T07:38:24.545Z,10.43
2023-04-23T07:40:54.679Z,10.47
2023-04-23T07:43:24.245Z,9.17
2023-04-23T07:45:53.039Z,9.10
2023-04-23T07:48:22.060Z,9.33
2023-04-23T07:50:50.899Z,8.40
2023-04-23T07:53:19.674Z,8.10
2023-04-23T07:55:48.340Z,7.93
2023-04-23T07:58:18.693Z,7.10
2023-04-23T08:00:47.298Z,7.90
2023-04-23T08:03:16.355Z,7.50
2023-04-23T08:05:45.415Z,7.17
2023-04-23T08:08:14.951Z,6.77
2023-04-23T08:10:43.953Z,6.83
2023-04-23T08:13:12.919Z,7.00
2023-04-23T08:15:43.380Z,6.80
2023-04-23T08:18:12.120Z,6.20
2023-04-23T08:20:40.996Z,6.70
2023-04-23T08:23:09.798Z,6.37
2023-04-23T08:25:38.435Z,5.90
2023-04-23T08:28:07.700Z,5.87
2023-04-23T08:30:36.416Z,5.67
2023-04-23T08:33:06.950Z,5.60
2023-04-23T08:35:37.559Z,5.60
2023-04-23T08:38:06.762Z,5.13
2023-04-23T08:40:39.018Z,4.67
2023-04-23T08:43:14.845Z,5.90
2023-04-23T08:45:47.935Z,4.57
2023-04-23T08:48:18.174Z,4.53
2023-04-23T08:50:53.676Z,4.43
2023-04-23T08:53:28.681Z,4.20
2023-04-23T08:55:58.854Z,4.27
2023-04-23T08:58:28.360Z,4.03
2023-04-23T09:00:58.310Z,4.67
2023-04-23T09:03:30.711Z,4.27
2023-04-23T09:06:00.949Z,3.93
2023-04-23T09:08:30.927Z,4.87
2023-04-23T09:11:02.202Z,4.73
2023-04-23T09:13:33.155Z,4.50
2023-04-23T09:16:02.773Z,3.70
2023-04-23T09:18:34.313Z,4.10
2023-04-23T09:21:04.507Z,3.67
2023-04-23T09:23:34.841Z,3.87
2023-04-23T09:26:08.213Z,3.50
2023-04-23T09:28:37.763Z,3.03
2023-04-23T09:31:07.580Z,3.63
2023-04-23T09:33:38.721Z,2.83
2023-04-23T09:36:11.408Z,3.30
2023-04-23T09:38:43.016Z,3.13
2023-04-23T09:41:25.595Z,3.17
2023-04-23T09:43:56.081Z,3.07
2023-04-23T09:46:38.422Z,2.77
2023-04-23T09:49:12.734Z,3.03
2023-04-23T09:51:43.083Z,2.77
2023-04-23T09:54:16.682Z,2.00
2023-04-23T09:56:46.118Z,2.40
2023-04-23T09:59:35.547Z,2.40
2023-04-23T10:02:12.566Z,2.17
2023-04-23T10:04:47.001Z,2.40
2023-04-23T10:07:20.201Z,2.60
2023-04-23T10:09:49.737Z,2.40
2023-04-23T10:14:54.059Z,2.03
2023-04-23T10:17:23.179Z,2.57
2023-04-23T10:19:54.472Z,2.77
2023-04-23T10:22:24.531Z,2.30
2023-04-23T10:24:58.424Z,2.23
2023-04-23T10:27:48.363Z,2.30
2023-04-23T10:30:20.413Z,2.53
2023-04-23T10:32:51.121Z,2.80
2023-04-23T10:35:21.490Z,2.20
2023-04-23T10:37:51.272Z,2.27
2023-04-23T10:40:26.811Z,2.23
2023-04-23T10:42:55.989Z,2.10
2023-04-23T10:45:25.896Z,2.20
2023-04-23T10:47:56.689Z,2.00
2023-04-23T10:50:28.783Z,1.87
2023-04-23T10:52:58.862Z,2.40
2023-04-23T10:55:29.344Z,2.50
2023-04-23T10:58:03.240Z,2.40
2023-04-23T11:00:46.091Z,1.83
2023-04-23T11:03:43.032Z,1.80
2023-04-23T11:06:20.558Z,2.20
2023-04-23T11:08:56.962Z,2.20
2023-04-23T11:11:40.861Z,2.10
2023-04-23T11:14:15.655Z,2.20
2023-04-23T11:16:44.620Z,2.00
2023-04-23T11:19:18.313Z,1.73
2023-04-23T11:22:06.821Z,1.60
2023-04-23T11:24:42.453Z,1.50
2023-04-23T11:27:13.511Z,1.60
2023-04-23T11:29:45.139Z,1.43
2023-04-23T11:32:15.275Z,1.67
2023-04-23T11:34:45.609Z,1.80
2023-04-23T11:37:17.495Z,1.70
2023-04-23T11:39:47.777Z,1.48
2023-04-23T11:42:20.375Z,1.30
2023-04-23T11:44:49.686Z,1.52
2023-04-23T11:47:19.204Z,2.05
2023-04-23T11:49:50.180Z,1.50
2023-04-23T11:52:20.597Z,1.80
2023-04-23T11:54:49.698Z,1.50
2023-04-23T11:57:18.807Z,1.85
2023-04-23T11:59:47.489Z,1.38
2023-04-23T12:02:16.894Z,1.15
2023-04-23T12:04:46.137Z,1.27
2023-04-23T12:07:25.885Z,1.87
2023-04-23T12:10:01.809Z,1.80
2023-04-23T12:12:35.831Z,1.40
2023-04-23T12:15:08.705Z,1.30
2023-04-23T12:17:37.506Z,1.30
2023-04-23T12:20:07.708Z,1.40
2023-04-23T12:22:36.610Z,1.77
2023-04-23T12:25:09.713Z,2.40
2023-04-23T12:27:42.832Z,3.43
2023-04-23T12:30:12.963Z,4.80
2023-04-23T12:32:42.627Z,1.60
2023-04-23T12:35:12.418Z,1.20
2023-04-23T12:37:41.268Z,1.20
2023-04-23T12:40:12.866Z,1.00
2023-04-23T12:42:42.359Z,1.10
2023-04-23T12:45:12.162Z,1.37
2023-04-23T12:47:41.283Z,1.00
2023-04-23T12:50:10.755Z,1.10
2023-04-23T12:52:39.579Z,0.93
2023-04-23T12:55:09.148Z,0.87
2023-04-23T12:57:39.471Z,1.03
2023-04-23T13:00:09.714Z,1.40
2023-04-23T13:02:38.572Z,1.10
2023-04-23T13:05:08.258Z,1.60
2023-04-23T13:07:37.855Z,1.30
2023-04-23T13:10:07.520Z,1.33
2023-04-23T13:12:36.492Z,1.23
2023-04-23T13:15:08.583Z,1.27
2023-04-23T13:17:39.425Z,1.10
2023-04-23T13:20:11.086Z,0.90
2023-04-23T13:22:40.136Z,1.25
2023-04-23T13:25:10.564Z,1.30
2023-04-23T13:27:41.030Z,0.98
2023-04-23T13:30:12.334Z,1.33
2023-04-23T13:32:41.786Z,1.20
2023-04-23T13:35:11.761Z,1.20
2023-04-23T13:37:41.807Z,1.08
2023-04-23T13:40:11.453Z,0.95
2023-04-23T13:42:40.278Z,0.85
2023-04-23T13:45:14.128Z,0.90
2023-04-23T13:47:43.664Z,0.80
2023-04-23T13:50:13.024Z,1.10
2023-04-23T13:52:42.075Z,0.90
2023-04-23T13:55:11.493Z,0.80
2023-04-23T13:57:40.389Z,3.00
2023-04-23T14:00:10.428Z,1.42
2023-04-23T14:02:42.018Z,1.98
2023-04-23T14:05:11.486Z,2.13
2023-04-23T14:07:40.372Z,0.75
2023-04-23T14:10:10.369Z,1.38
2023-04-23T14:12:39.625Z,0.90
2023-04-23T14:15:09.789Z,0.80
2023-04-23T14:17:43.103Z,0.70
2023-04-23T14:20:13.040Z,1.00
2023-04-23T14:22:43.807Z,0.57
2023-04-23T14:25:17.616Z,1.10
2023-04-23T14:27:48.289Z,1.00
2023-04-23T14:30:20.463Z,1.17
2023-04-23T14:32:51.242Z,1.20
2023-04-23T14:35:29.263Z,1.00
2023-04-23T14:38:04.727Z,1.63
2023-04-23T14:40:34.124Z,1.30
2023-04-23T14:43:14.490Z,1.70
2023-04-23T14:45:44.809Z,1.38
2023-04-23T14:48:15.035Z,1.40
2023-04-23T14:50:43.920Z,1.60
2023-04-23T14:53:13.101Z,2.00
2023-04-23T14:55:43.535Z,1.42
2023-04-23T14:58:12.472Z,1.00
2023-04-23T15:00:42.984Z,1.52
2023-04-23T15:03:12.524Z,3.83
2023-04-23T15:05:43.250Z,1.13
2023-04-23T15:08:13.212Z,0.90
2023-04-23T15:10:42.507Z,1.73
2023-04-23T15:13:41.152Z,1.35
2023-04-23T15:16:29.079Z,1.58
2023-04-23T15:19:10.393Z,2.63
2023-04-23T15:21:43.327Z,1.05
2023-04-23T15:24:15.052Z,1.60
2023-04-23T15:26:44.018Z,1.00
2023-04-23T15:29:13.866Z,0.60
2023-04-23T15:31:43.375Z,0.98
2023-04-23T15:34:12.577Z,1.10
2023-04-23T15:36:42.809Z,1.00
2023-04-23T15:39:11.711Z,0.90
2023-04-23T15:41:41.359Z,0.90
2023-04-23T15:44:12.853Z,1.10
2023-04-23T15:46:41.844Z,1.00
2023-04-23T15:49:11.151Z,2.05
2023-04-23T15:51:41.668Z,2.30
2023-04-23T15:54:11.062Z,1.77
2023-04-23T15:56:39.999Z,1.00
2023-04-23T15:59:09.360Z,1.10
2023-04-23T16:01:39.717Z,1.77
2023-04-23T16:04:11.648Z,1.20
2023-04-23T16:06:42.506Z,4.20
2023-04-23T16:09:11.575Z,5.97
2023-04-23T16:11:41.034Z,2.30
2023-04-23T16:14:12.643Z,2.30
2023-04-23T16:16:41.740Z,1.93
2023-04-23T16:19:12.027Z,2.00
2023-04-23T16:21:42.477Z,1.90
2023-04-23T16:24:11.847Z,1.37
2023-04-23T16:26:41.047Z,2.50
2023-04-23T16:29:21.474Z,1.90
2023-04-23T16:31:51.835Z,2.27
2023-04-23T16:34:20.874Z,1.57
2023-04-23T16:36:51.849Z,1.77
2023-04-23T16:39:20.760Z,2.43
2023-04-23T16:41:49.795Z,2.03
2023-04-23T16:44:19.541Z,1.93
2023-04-23T16:46:48.680Z,1.90
2023-04-23T16:49:17.696Z,1.90
2023-04-23T16:51:47.176Z,2.20
2023-04-23T16:54:18.140Z,2.47
2023-04-23T16:56:47.286Z,2.20
2023-04-23T16:59:16.843Z,2.30
2023-04-23T17:01:46.637Z,2.40
2023-04-23T17:04:16.161Z,3.00
2023-04-23T17:06:45.449Z,2.77
2023-04-23T17:09:14.781Z,2.47
2023-04-23T17:11:45.763Z,3.30
2023-04-23T17:14:14.792Z,5.33
2023-04-23T17:16:44.829Z,4.93
2023-04-23T17:19:14.074Z,5.13
2023-04-23T17:21:43.477Z,5.93
2023-04-23T17:24:12.908Z,4.57
2023-04-23T17:26:42.677Z,4.10
2023-04-23T17:29:13.736Z,3.90
2023-04-23T17:31:43.066Z,3.40
2023-04-23T17:34:12.645Z,3.33
2023-04-23T17:36:41.955Z,4.30
2023-04-23T17:39:11.130Z,4.77
2023-04-23T17:41:41.437Z,5.00
2023-04-23T17:44:12.159Z,5.07
2023-04-23T17:46:41.486Z,5.73
2023-04-23T17:49:10.806Z,6.23
2023-04-23T17:51:40.236Z,6.83
2023-04-23T17:54:09.602Z,11.50
2023-04-23T17:56:39.632Z,5.63
2023-04-23T17:59:09.459Z,4.97
2023-04-23T18:01:40.090Z,5.40
2023-04-23T18:04:10.966Z,8.00
2023-04-23T18:06:40.134Z,5.57
2023-04-23T18:09:09.420Z,5.60
2023-04-23T18:11:40.138Z,5.53
2023-04-23T18:14:09.598Z,5.87
2023-04-23T18:16:41.122Z,5.93
2023-04-23T18:19:10.200Z,5.30
2023-04-23T18:21:40.144Z,6.10
2023-04-23T18:24:09.559Z,5.50
2023-04-23T18:26:38.489Z,5.70
2023-04-23T18:29:07.634Z,6.27
2023-04-23T18:31:37.081Z,6.40
2023-04-23T18:34:11.911Z,6.57
2023-04-23T18:36:44.355Z,6.47
2023-04-23T18:39:13.849Z,6.43
2023-04-23T18:41:43.409Z,7.47
2023-04-23T18:44:13.562Z,7.70
2023-04-23T18:46:42.692Z,7.53
2023-04-23T18:49:40.180Z,8.10
2023-04-23T18:52:09.524Z,7.80
2023-04-23T18:54:39.089Z,8.40
2023-04-23T18:57:08.189Z,8.33
2023-04-23T18:59:38.577Z,6.67
2023-04-23T19:02:07.927Z,6.70
2023-04-23T19:04:38.389Z,5.07
2023-04-23T19:07:07.329Z,5.47
2023-04-23T19:09:36.246Z,5.30
2023-04-23T19:12:05.818Z,6.40
2023-04-23T19:14:34.760Z,5.70
2023-04-23T19:17:03.916Z,5.43
2023-04-23T19:19:35.529Z,5.93
2023-04-23T19:22:05.862Z,5.73
2023-04-23T19:24:34.746Z,5.27
2023-04-23T19:27:03.706Z,5.33
2023-04-23T19:29:32.556Z,5.53
2023-04-23T19:32:01.788Z,5.90
2023-04-23T19:34:31.114Z,5.57
2023-04-23T19:37:01.808Z,6.20
2023-04-23T19:39:32.275Z,5.70
2023-04-23T19:42:02.936Z,5.47
2023-04-23T19:44:31.971Z,6.50
2023-04-23T19:47:01.071Z,6.03
2023-04-23T19:49:30.418Z,5.00
2023-04-23T19:52:00.553Z,4.30
2023-04-23T19:54:29.565Z,4.33
2023-04-23T19:56:59.866Z,4.67
2023-04-23T19:59:28.861Z,5.00
2023-04-23T20:01:58.118Z,5.30
2023-04-23T20:04:27.551Z,5.07
2023-04-23T20:06:56.478Z,5.43
2023-04-23T20:09:25.802Z,5.00
2023-04-23T20:11:55.038Z,4.73
2023-04-23T20:14:26.162Z,4.87
2023-04-23T20:16:55.443Z,5.10
2023-04-23T20:19:25.957Z,4.53
2023-04-23T20:21:55.255Z,5.97
2023-04-23T20:24:24.394Z,6.27
2023-04-23T20:26:53.589Z,4.70
2023-04-23T20:29:22.744Z,2.90
2023-04-23T20:31:53.515Z,4.07
2023-04-23T20:34:22.613Z,5.20
2023-04-23T20:36:51.974Z,6.90
2023-04-23T20:39:24.503Z,5.50
2023-04-23T20:41:55.230Z,3.80
2023-04-23T20:44:24.182Z,6.53
2023-04-23T20:46:57.965Z,6.90
2023-04-23T20:49:27.153Z,5.37
2023-04-23T20:51:56.874Z,5.87
2023-04-23T20:54:26.098Z,4.23
2023-04-23T20:56:54.896Z,4.43
2023-04-23T20:59:24.079Z,3.13
2023-04-23T21:01:54.823Z,2.63
2023-04-23T21:04:24.153Z,3.43
2023-04-23T21:06:53.042Z,2.20
2023-04-23T21:09:21.888Z,2.20
2023-04-23T21:11:51.270Z,1.73
2023-04-23T21:14:20.505Z,1.30
2023-04-23T21:16:49.196Z,1.00
2023-04-23T21:19:19.565Z,1.37
2023-04-23T21:21:48.308Z,0.90
2023-04-23T21:24:17.064Z,2.80
2023-04-23T21:26:46.803Z,2.97
2023-04-23T21:29:16.706Z,1.40
2023-04-23T21:31:48.000Z,1.90
2023-04-23T21:34:19.747Z,2.23
2023-04-23T21:36:48.691Z,2.73
2023-04-23T21:39:17.756Z,1.50
2023-04-23T21:41:47.319Z,1.00
2023-04-23T21:44:16.098Z,1.57
2023-04-23T21:46:46.002Z,1.30
2023-04-23T21:49:15.121Z,2.10
2023-04-23T21:51:45.604Z,2.73
2023-04-23T21:54:15.178Z,2.60
2023-04-23T21:56:44.050Z,2.57
2023-04-23T21:59:13.135Z,2.97
2023-04-23T22:01:41.848Z,2.70
2023-04-23T22:04:10.789Z,2.80
2023-04-23T22:06:39.726Z,2.60
2023-04-23T22:09:10.415Z,1.80
2023-04-23T22:11:39.058Z,1.80
2023-04-23T22:14:09.079Z,2.23
2023-04-23T22:16:40.864Z,2.03
2023-04-23T22:19:10.495Z,1.77
2023-04-23T22:21:39.135Z,1.63
2023-04-23T22:24:09.950Z,1.70
2023-04-23T22:26:41.240Z,1.90
2023-04-23T22:29:10.289Z,1.60
2023-04-23T22:31:38.990Z,1.43
2023-04-23T22:34:08.024Z,1.70
2023-04-23T22:36:36.680Z,1.30
2023-04-23T22:39:05.980Z,1.60
2023-04-23T22:41:39.723Z,2.07
2023-04-23T22:44:09.440Z,2.10
2023-04-23T22:46:39.059Z,2.90
2023-04-23T22:49:11.288Z,2.50
2023-04-23T22:51:40.013Z,2.90
2023-04-23T22:54:09.032Z,2.40
2023-04-23T22:56:39.188Z,2.70
2023-04-23T22:59:08.145Z,2.20
2023-04-23T23:01:36.799Z,3.43
2023-04-23T23:04:05.446Z,3.83
2023-04-23T23:06:34.245Z,2.90
2023-04-23T23:09:02.890Z,3.20
2023-04-23T23:11:31.752Z,3.20
2023-04-23T23:14:02.323Z,2.47
2023-04-23T23:16:31.851Z,2.60
2023-04-23T23:19:00.619Z,2.93
2023-04-23T23:21:29.369Z,2.87
2023-04-23T23:23:58.009Z,3.90
2023-04-23T23:26:26.773Z,4.13
2023-04-23T23:28:55.836Z,3.47
2023-04-23T23:31:26.413Z,2.10
2023-04-23T23:33:55.118Z,3.90
2023-04-23T23:36:23.733Z,3.60
2023-04-23T23:38:53.071Z,2.67
2023-04-23T23:41:21.625Z,3.67
2023-04-23T23:43:50.214Z,2.37
2023-04-23T23:46:20.080Z,3.00
2023-04-23T23:48:50.547Z,3.00
2023-04-23T23:51:19.122Z,3.53
2023-04-23T23:53:47.786Z,3.43
2023-04-23T23:56:16.804Z,3.37
2023-04-23T23:58:45.452Z,3.30
